Time;durP1;ratioP1;P1;durP2;ratioP2;P2;SDS_P1;SDS_P2;PMS_P1;PMS_P2;Temp;Humidity;BMP_temperature;BMP_pressure;BME280_temperature;BME280_humidity;BME280_pressure;Samples;Min_cycle;Max_cycle;Signal;HPM_P1;HPM_P2
2022/05/24 00:08:47;;;;;;;2.23;1.00;;;;;;;;;;20919967;28;20049;-61
2022/05/24 00:18:48;;;;;;;3.83;1.13;;;;;;;;;;20919328;28;20235;-62
2022/05/24 00:28:50;;;;;;;3.30;1.05;;;;;;;;;;20918407;28;20220;-61
2022/05/24 00:38:52;;;;;;;1.40;0.80;;;;;;;;;;20917321;28;20049;-63
2022/05/24 00:49:04;;;;;;;3.38;0.95;;;;;;;;;;20916647;28;20048;-60
2022/05/24 00:59:08;;;;;;;4.32;1.10;;;;;;;;;;20916105;28;20041;-63
2022/05/24 01:09:14;;;;;;;1.75;0.90;;;;;;;;;;20915926;28;20095;-62
2022/05/24 01:19:28;;;;;;;2.95;1.05;;;;;;;;;;20915313;28;20056;-63
2022/05/24 01:29:30;;;;;;;3.38;1.00;;;;;;;;;;20914068;28;20409;-62
2022/05/24 01:39:33;;;;;;;1.80;1.10;;;;;;;;;;20914600;28;20408;-62
2022/05/24 01:49:39;;;;;;;2.03;1.00;;;;;;;;;;20913193;28;20057;-63
2022/05/24 01:59:45;;;;;;;2.10;1.00;;;;;;;;;;20911688;28;20094;-62
2022/05/24 02:09:50;;;;;;;1.83;1.00;;;;;;;;;;20911941;28;20052;-62
2022/05/24 02:19:54;;;;;;;1.65;0.80;;;;;;;;;;20911116;28;20056;-62
2022/05/24 02:30:04;;;;;;;2.65;1.00;;;;;;;;;;20911913;28;20067;-61
2022/05/24 02:50:30;;;;;;;2.40;0.80;;;;;;;;;;20909890;28;20080;-62
2022/05/24 03:00:32;;;;;;;;;;;;;;;;;;20910803;28;20048;-61
2022/05/24 03:10:35;;;;;;;2.75;1.10;;;;;;;;;;20912818;28;19996;-61
2022/05/24 03:20:40;;;;;;;2.40;0.90;;;;;;;;;;20924057;28;20057;-62
2022/05/24 03:30:42;;;;;;;;;;;;;;;;;;20924882;28;20041;-63
2022/05/24 03:40:45;;;;;;;4.03;1.10;;;;;;;;;;20923548;28;19928;-61
2022/05/24 03:50:47;;;;;;;1.93;1.20;;;;;;;;;;20921435;28;20095;-62
2022/05/24 04:00:50;;;;;;;3.47;1.30;;;;;;;;;;20920713;28;20057;-63
2022/05/24 04:10:58;;;;;;;4.10;1.10;;;;;;;;;;20920240;28;20134;-62
2022/05/24 04:21:01;;;;;;;3.35;1.17;;;;;;;;;;20919633;28;20489;-62
2022/05/24 04:31:04;;;;;;;2.70;1.30;;;;;;;;;;20918553;28;20072;-62
2022/05/24 04:51:26;;;;;;;3.42;1.35;;;;;;;;;;20917507;28;20048;-63
2022/05/24 05:01:28;;;;;;;2.75;1.17;;;;;;;;;;20915887;28;20134;-63
2022/05/24 05:11:30;;;;;;;3.58;1.23;;;;;;;;;;20915304;28;20084;-62
2022/05/24 05:21:33;;;;;;;6.85;2.03;;;;;;;;;;20914467;28;20053;-63
2022/05/24 05:31:34;;;;;;;;;;;19.70;46.70;;;;;;20914125;28;20377;-63
2022/05/24 05:41:37;;;;;;;3.10;1.73;;;19.70;46.70;;;;;;20911950;28;19921;-62
2022/05/24 05:51:38;;;;;;;4.13;1.58;;;19.50;47.40;;;;;;20912027;28;20124;-62
2022/05/24 06:01:42;;;;;;;4.22;1.40;;;19.60;47.40;;;;;;20911525;28;20088;-63
2022/05/24 06:11:44;;;;;;;4.53;1.55;;;19.40;48.10;;;;;;20911821;28;20430;-63
2022/05/24 06:21:45;;;;;;;5.88;1.92;;;19.50;48.20;;;;;;20910791;28;20044;-63
2022/05/24 06:31:47;;;;;;;4.07;1.60;;;19.60;48.20;;;;;;20909724;28;20053;-62
2022/05/24 06:41:49;;;;;;;3.78;1.60;;;19.70;47.80;;;;;;20910845;28;20057;-63
2022/05/24 06:51:51;;;;;;;3.70;1.50;;;19.70;47.70;;;;;;20922353;28;20061;-63
2022/05/24 07:12:16;;;;;;;6.65;1.98;;;20.70;45.40;;;;;;20924451;28;20051;-63
2022/05/24 07:22:18;;;;;;;6.10;1.55;;;21.20;44.70;;;;;;20924314;28;20053;-63
2022/05/24 07:32:20;;;;;;;;;;;21.70;43.10;;;;;;20924105;28;20417;-63
2022/05/24 07:52:42;;;;;;;3.33;1.70;;;22.20;41.80;;;;;;20922264;28;20049;-63
2022/05/24 08:02:44;;;;;;;5.07;1.50;;;22.60;41.20;;;;;;20920288;28;20395;-62
2022/05/24 08:12:45;;;;;;;4.07;1.60;;;22.60;40.80;;;;;;20921226;28;20091;-61
2022/05/24 08:22:48;;;;;;;4.53;1.17;;;23.00;40.70;;;;;;20919368;28;20418;-63
2022/05/24 08:32:50;;;;;;;5.60;1.80;;;23.20;39.90;;;;;;20918235;28;20047;-63
2022/05/24 08:43:28;;;;;;;2.83;1.53;;;23.10;39.60;;;;;;20917324;28;20059;-62
2022/05/24 08:53:41;;;;;;;2.90;1.38;;;23.40;38.90;;;;;;20916248;28;20375;-63
2022/05/24 09:03:43;;;;;;;2.00;1.13;;;23.20;39.50;;;;;;20915817;28;20053;-63
2022/05/24 09:13:53;;;;;;;6.88;1.42;;;23.50;38.20;;;;;;20914411;28;20464;-54
2022/05/24 09:24:19;;;;;;;2.65;1.27;;;23.90;39.50;;;;;;20913633;28;20084;-57
2022/05/24 09:34:30;;;;;;;4.57;1.88;;;24.20;39.30;;;;;;20913269;28;20072;-61
2022/05/24 09:44:49;;;;;;;3.03;1.40;;;24.40;38.40;;;;;;20912485;28;20053;-57
2022/05/24 09:54:59;;;;;;;6.72;1.98;;;24.30;38.30;;;;;;20911384;28;20061;-64
2022/05/24 10:05:03;;;;;;;6.85;1.50;;;24.20;37.90;;;;;;20911543;28;20059;-68
2022/05/24 10:15:33;;;;;;;3.42;1.30;;;24.10;38.00;;;;;;20902052;28;20218;-59
2022/05/24 10:26:00;;;;;;;3.35;1.45;;;24.00;38.20;;;;;;20898376;28;20055;-62
2022/05/24 10:46:58;;;;;;;5.95;1.90;;;24.30;38.50;;;;;;20927201;28;20049;-57
2022/05/24 10:57:10;;;;;;;3.28;1.45;;;24.70;37.40;;;;;;20925456;28;20421;-61
2022/05/24 11:07:16;;;;;;;4.78;1.90;;;25.10;36.70;;;;;;20924149;28;20049;-60
2022/05/24 11:17:20;;;;;;;6.50;1.77;;;25.10;37.50;;;;;;20923688;28;20049;-65
2022/05/24 11:27:41;;;;;;;5.20;2.95;;;24.90;36.70;;;;;;20922726;28;20057;-63
2022/05/24 11:37:44;;;;;;;3.90;1.80;;;25.10;36.50;;;;;;20919933;28;20515;-67
2022/05/24 11:47:55;;;;;;;2.38;1.33;;;25.20;33.70;;;;;;20920273;28;20049;-65
2022/05/24 11:58:19;;;;;;;2.23;1.57;;;25.10;34.50;;;;;;20919191;28;20137;-62
2022/05/24 12:08:28;;;;;;;6.72;1.35;;;24.30;34.80;;;;;;20919882;28;20064;-66
2022/05/24 12:18:53;;;;;;;3.33;1.38;;;24.70;33.80;;;;;;20919818;28;20473;-68
2022/05/24 12:28:55;;;;;;;2.42;1.33;;;24.70;33.70;;;;;;20917262;28;20084;-69
2022/05/24 12:39:16;;;;;;;5.40;1.52;;;24.70;33.30;;;;;;20918615;28;20052;-65
2022/05/24 12:49:30;;;;;;;4.05;1.20;;;24.80;32.90;;;;;;20916916;28;20502;-69
2022/05/24 12:59:40;;;;;;;3.22;1.10;;;24.60;32.80;;;;;;20915871;28;20084;-69
2022/05/24 13:09:43;;;;;;;3.47;1.00;;;24.50;32.10;;;;;;20915527;28;20056;-68
2022/05/24 13:19:55;;;;;;;3.15;1.15;;;24.40;31.50;;;;;;20915970;28;20060;-68
2022/05/24 13:40:39;;;;;;;4.50;1.13;;;24.20;31.70;;;;;;20913713;28;20053;-68
2022/05/24 13:50:41;;;;;;;5.47;1.97;;;24.10;32.10;;;;;;20912810;28;20059;-69
2022/05/24 14:00:51;;;;;;;4.00;1.13;;;24.10;31.50;;;;;;20911930;28;20059;-69
2022/05/24 14:10:53;;;;;;;5.07;1.30;;;23.90;30.50;;;;;;20912384;28;20505;-68
2022/05/24 14:20:55;;;;;;;3.57;1.33;;;23.90;30.90;;;;;;20911488;28;20143;-66
2022/05/24 14:30:57;;;;;;;2.50;1.20;;;23.80;30.30;;;;;;20910544;28;20673;-67
2022/05/24 14:41:17;;;;;;;2.80;1.17;;;23.70;30.00;;;;;;20910325;28;20092;-68
2022/05/24 14:51:29;;;;;;;4.35;1.33;;;23.40;31.20;;;;;;20910117;28;20045;-69
2022/05/24 15:01:31;;;;;;;;;;;23.10;31.20;;;;;;20908552;28;20071;-67
2022/05/24 15:21:53;;;;;;;5.50;0.93;;;22.70;30.50;;;;;;20923757;28;20045;-62
2022/05/24 15:31:55;;;;;;;3.92;0.95;;;21.80;29.80;;;;;;20922015;28;20049;-58
2022/05/24 15:41:56;;;;;;;4.35;1.20;;;21.00;31.20;;;;;;20922472;28;20385;-58
2022/05/24 15:51:58;;;;;;;7.43;1.15;;;20.60;32.10;;;;;;20921836;28;20183;-65
2022/05/24 16:02:02;;;;;;;2.90;0.88;;;20.40;32.30;;;;;;20922930;28;20053;-69
2022/05/24 16:12:08;;;;;;;3.75;0.90;;;20.50;32.10;;;;;;20925674;28;20068;-65
2022/05/24 16:22:09;;;;;;;5.55;1.10;;;20.20;32.70;;;;;;20920585;28;20049;-66
2022/05/24 16:32:11;;;;;;;4.78;1.13;;;20.50;32.80;;;;;;20926038;28;20049;-69
2022/05/24 16:42:15;;;;;;;3.72;1.08;;;20.70;31.60;;;;;;20930427;28;20551;-69
2022/05/24 16:52:17;;;;;;;4.43;1.42;;;20.40;31.80;;;;;;20932142;28;20053;-73
2022/05/24 17:02:18;;;;;;;1.65;0.80;;;20.20;31.50;;;;;;20916418;28;20497;-73
2022/05/24 17:12:20;;;;;;;4.47;1.13;;;20.60;30.20;;;;;;20921197;28;20072;-75
2022/05/24 17:22:23;;;;;;;34.15;24.98;;;20.30;29.10;;;;;;20921690;28;20056;-57
2022/05/24 17:32:29;;;;;;;4.38;2.05;;;21.20;32.60;;;;;;20877816;28;20045;-79
2022/05/24 17:42:31;;;;;;;2.15;1.05;;;20.90;27.90;;;;;;20886751;28;20201;-66
2022/05/24 17:52:33;;;;;;;4.47;1.00;;;20.50;29.30;;;;;;20867261;28;20072;-64
2022/05/24 18:02:36;;;;;;;4.45;1.10;;;20.80;28.10;;;;;;20911382;28;20088;-65
2022/05/24 18:12:43;;;;;;;;;;;20.40;27.70;;;;;;20912959;28;20074;-66
2022/05/24 18:22:50;;;;;;;3.83;1.25;;;20.40;27.10;;;;;;20911913;28;19928;-65
2022/05/24 18:33:08;;;;;;;2.95;0.80;;;20.20;26.60;;;;;;20910941;28;20044;-65
2022/05/24 18:43:10;;;;;;;2.15;0.80;;;20.10;26.00;;;;;;20917744;28;20141;-66
2022/05/24 18:53:11;;;;;;;1.88;0.98;;;20.00;25.40;;;;;;20926878;28;20061;-66
2022/05/24 19:03:13;;;;;;;2.28;1.10;;;19.90;25.80;;;;;;20926239;28;20140;-66
2022/05/24 19:13:15;;;;;;;3.90;0.90;;;19.70;27.00;;;;;;20948443;28;20025;-72
2022/05/24 19:23:18;;;;;;;3.53;1.85;;;19.60;27.00;;;;;;20958838;28;20057;-70
2022/05/24 19:33:21;;;;;;;3.13;0.98;;;19.20;28.10;;;;;;20929551;28;20125;-70
2022/05/24 19:43:22;;;;;;;3.05;1.05;;;19.20;28.30;;;;;;20929818;28;20053;-73
2022/05/24 19:53:24;;;;;;;9.43;1.55;;;19.20;28.40;;;;;;20921009;28;20045;-66
2022/05/24 20:03:26;;;;;;;5.50;1.80;;;19.30;28.10;;;;;;20920027;28;20243;-66
2022/05/24 20:13:28;;;;;;;3.20;1.48;;;19.20;28.60;;;;;;20920077;28;20052;-66
2022/05/24 20:23:29;;;;;;;4.15;1.38;;;19.00;28.80;;;;;;20919352;28;20057;-69
2022/05/24 20:33:31;;;;;;;4.28;1.20;;;18.90;29.20;;;;;;20918705;28;20053;-68
2022/05/24 20:43:34;;;;;;;3.70;1.00;;;18.80;29.90;;;;;;20918065;28;20507;-67
2022/05/24 20:53:38;;;;;;;1.92;1.08;;;18.70;31.60;;;;;;20917339;28;20072;-67
2022/05/24 21:03:41;;;;;;;7.15;1.10;;;18.20;33.20;;;;;;20915144;28;20053;-66
2022/05/24 21:13:43;;;;;;;5.18;1.00;;;18.10;34.40;;;;;;20916528;28;20044;-67
2022/05/24 21:23:45;;;;;;;4.35;0.98;;;17.80;36.00;;;;;;20915216;28;20053;-67
2022/05/24 21:33:46;;;;;;;3.83;1.10;;;17.60;37.40;;;;;;20915485;28;20171;-68
2022/05/24 21:43:48;;;;;;;2.10;0.82;;;17.30;38.20;;;;;;20915038;28;20094;-67
2022/05/24 21:53:50;;;;;;;4.47;0.88;;;17.30;38.60;;;;;;20913141;28;20054;-66
2022/05/24 22:03:51;;;;;;;2.08;0.75;;;17.00;39.20;;;;;;20913146;28;20057;-67
2022/05/24 22:13:53;;;;;;;2.42;0.80;;;17.00;39.00;;;;;;20912738;28;20049;-66
2022/05/24 22:23:55;;;;;;;3.30;0.70;;;16.70;38.80;;;;;;20916508;28;20049;-66
2022/05/24 22:33:56;;;;;;;3.22;0.77;;;16.80;39.50;;;;;;20912034;28;20041;-67
2022/05/24 22:43:58;;;;;;;2.05;0.80;;;16.60;40.10;;;;;;20911557;28;20111;-66
2022/05/24 22:53:59;;;;;;;2.55;0.85;;;16.40;41.00;;;;;;20911141;28;20071;-72
2022/05/24 23:04:01;;;;;;;3.20;1.00;;;16.30;42.50;;;;;;20910900;28;20104;-66
2022/05/24 23:14:03;;;;;;;3.53;1.27;;;16.30;42.80;;;;;;20909912;28;20049;-66
2022/05/24 23:24:05;;;;;;;3.25;0.70;;;16.20;43.90;;;;;;20909904;28;20056;-66
2022/05/24 23:34:06;;;;;;;1.15;0.70;;;15.90;44.40;;;;;;20921818;28;20094;-67
2022/05/24 23:44:08;;;;;;;2.30;0.90;;;;;;;;;;20923930;28;20048;-66
2022/05/24 23:54:10;;;;;;;1.77;0.73;;;;;;;;;;20923224;28;20465;-66
